Main page
METAR-TAF:

METAR-TAF

Airports :

Mehrabad International Airport

Tehran, Iran

latitude: 35-41N, longitude: 051-21E, elevation: 1204 m

Current weather observation

The report was made 29 minutes ago, at 22:00 UTC
Calm wind
Temperature 9°C
Humidity 66%
Pressure 1022 hPa
Visibility 10 km or more
no clouds below 1500 m and no cumulonimbus

METAR: OIII 172200Z 00000KT CAVOK 09/03 Q1021 A3017 NOSIG

Time: 01:59 (22:29 UTC)

Forecast

The report was made 4 hours and 59 minutes ago, at 17:30 UTC
Forecast valid from 17 at 18 UTC to 18 at 24 UTC
Wind 8 kt from the Northwest
Visibility: 8000 m
Becoming
from 17 at 22 UTC to 17 at 24 UTC
Visibility: 5000 m
Becoming
from 18 at 08 UTC to 18 at 10 UTC
Visibility: 7000 m
Becoming
from 18 at 22 UTC to 18 at 24 UTC
Visibility: 5000 m

TAF: OIII 171730Z 1718/1824 31004MPS 8000 NSC BECMG 1722/1724 5000 BR/HZ BECMG 1808/1810 7000 BECMG 1822/1824 5000 BR/HZ

Weather observations and forecasts of more than 4000 airports (METAR and TAF reports).

The available stations are represented by yellow and red dots on the map.

Hover mouse over dot to see the name of the station.

Then click to see weather observations and forecasts.

To change the map : click on the green buttons with a black cross to zoom in, on the green button with a dash to zoom out, or on the green arrows for adjacent maps.


METAR-TAF: